Time;durP1;ratioP1;P1;durP2;ratioP2;P2;SDS_P1;SDS_P2;PMS_P1;PMS_P2;Temp;Humidity;BMP_temperature;BMP_pressure;BME280_temperature;BME280_humidity;BME280_pressure;Samples;Min_cycle;Max_cycle;Signal;HPM_P1;HPM_P2
2022/04/20 00:01:54;;;;;;;2.17;1.40;;;13.30;37.80;;;10.91;40.80;101337.88;8258066;28;20026;-81
2022/04/20 00:05:56;;;;;;;2.30;2.15;;;13.20;37.80;;;10.89;40.38;101349.34;8259720;28;20168;-80
2022/04/20 00:09:58;;;;;;;1.80;1.70;;;13.40;37.80;;;10.85;40.55;101352.09;8259974;28;20117;-80
2022/04/20 00:13:59;;;;;;;2.15;1.70;;;13.10;37.80;;;10.61;40.56;101314.88;8256786;28;20036;-80
2022/04/20 00:18:01;;;;;;;5.78;1.55;;;12.90;37.90;;;10.58;41.08;101309.78;8241475;28;20133;-80
2022/04/20 00:22:03;;;;;;;2.10;1.85;;;13.00;38.10;;;10.63;41.11;101318.25;8257327;28;20109;-80
2022/04/20 00:26:05;;;;;;;1.85;1.33;;;13.00;38.10;;;10.39;40.63;101290.66;8258855;28;20121;-81
2022/04/20 00:30:09;;;;;;;2.97;1.98;;;13.00;38.20;;;10.81;41.30;101363.59;8257321;28;20741;-80
2022/04/20 00:34:11;;;;;;;1.80;1.50;;;13.00;38.30;;;10.62;41.17;101334.84;8255425;28;20141;-81
2022/04/20 00:38:13;;;;;;;1.60;1.42;;;12.90;38.20;;;10.70;41.18;101358.00;8255122;28;20034;-81
2022/04/20 00:42:14;;;;;;;3.63;1.38;;;12.90;38.20;;;10.29;40.68;101295.44;8271932;28;20118;-81
2022/04/20 00:46:19;;;;;;;1.60;1.40;;;12.80;38.30;;;10.68;41.01;101349.38;8257145;28;20474;-81
2022/04/20 00:50:22;;;;;;;1.45;1.30;;;12.90;38.40;;;10.60;40.98;101330.59;8273606;28;20579;-80
2022/04/20 00:54:24;;;;;;;1.80;0.93;;;13.00;38.50;;;10.60;41.17;101328.84;8243675;28;20121;-80
2022/04/20 00:58:28;;;;;;;2.50;1.42;;;12.90;38.40;;;10.28;41.68;101280.69;8255915;28;20133;-81
2022/04/20 01:02:31;;;;;;;1.33;1.20;;;13.00;38.50;;;10.65;41.31;101336.47;8239277;28;20038;-81
2022/04/20 01:06:33;;;;;;;1.10;1.00;;;12.80;38.40;;;10.54;41.59;101317.84;8254183;28;20129;-81
2022/04/20 01:10:44;;;;;;;3.13;0.98;;;12.80;38.50;;;10.64;41.58;101332.19;8256338;28;20046;-80
2022/04/20 01:14:45;;;;;;;0.90;0.90;;;12.90;38.60;;;10.44;41.12;101301.72;8257587;28;20038;-81
2022/04/20 01:19:07;;;;;;;2.17;1.10;;;12.70;38.40;;;10.56;41.12;101310.78;8259680;28;20472;-81
2022/04/20 01:23:26;;;;;;;2.55;1.13;;;12.90;38.50;;;10.71;41.51;101344.03;8243394;28;20126;-81
2022/04/20 01:27:54;;;;;;;0.98;0.98;;;12.90;38.50;;;10.70;41.46;101341.50;8261426;28;20046;-81
2022/04/20 01:32:04;;;;;;;0.70;0.70;;;13.10;38.60;;;10.38;41.45;101283.75;8275243;28;20129;-81
2022/04/20 01:36:24;;;;;;;1.20;1.13;;;12.90;38.60;;;10.63;41.41;101331.31;8257200;28;20045;-81
2022/04/20 01:40:26;;;;;;;1.40;0.88;;;12.90;38.60;;;10.68;41.71;101341.56;8275798;28;20141;-80
2022/04/20 01:44:28;;;;;;;3.78;1.27;;;12.80;38.60;;;10.62;42.02;101342.69;8274238;28;20610;-81
2022/04/20 01:48:41;;;;;;;1.73;1.27;;;12.90;38.70;;;10.56;41.74;101335.13;8241077;28;20125;-81
2022/04/20 01:53:01;;;;;;;1.67;0.95;;;12.90;38.80;;;10.06;42.08;101252.06;8258505;28;20144;-81
2022/04/20 01:57:35;;;;;;;2.03;1.00;;;12.80;38.80;;;10.41;41.98;101313.16;8274101;28;20049;-81
2022/04/20 02:06:10;;;;;;;1.15;1.08;;;12.70;38.80;;;10.53;41.75;101337.88;8271789;28;20118;-80
2022/04/20 02:10:21;;;;;;;2.95;1.00;;;12.70;39.10;;;10.47;41.80;101322.47;8258725;28;20145;-81
2022/04/20 02:14:23;;;;;;;1.20;1.10;;;12.60;39.00;;;10.33;42.13;101303.97;8261815;28;20125;-80
2022/04/20 02:18:34;;;;;;;3.40;1.83;;;12.60;39.10;;;10.07;42.21;101259.00;8259866;28;20046;-81
2022/04/20 02:22:55;;;;;;;1.92;1.27;;;12.60;39.20;;;10.29;42.51;101291.97;8271316;28;20038;-81
2022/04/20 02:27:00;;;;;;;2.78;1.17;;;12.70;39.20;;;10.22;42.49;101286.16;8264067;28;20138;-81
2022/04/20 02:31:02;;;;;;;2.35;1.10;;;12.70;39.30;;;10.41;42.17;101325.38;8274094;28;20125;-81
2022/04/20 02:35:04;;;;;;;1.30;1.20;;;12.50;39.20;;;10.25;42.32;101300.84;8258735;28;20535;-80
2022/04/20 02:39:05;;;;;;;1.27;0.98;;;12.60;39.50;;;10.14;42.27;101293.47;8264125;28;20473;-80
2022/04/20 02:43:08;;;;;;;1.75;1.10;;;12.40;39.40;;;10.29;42.52;101313.72;8245350;28;20148;-80
2022/04/20 02:47:10;;;;;;;1.40;1.30;;;12.40;39.50;;;10.31;42.78;101322.31;8246162;28;20137;-81
2022/04/20 02:51:11;;;;;;;1.35;1.25;;;12.40;39.50;;;10.06;42.13;101295.59;8264749;28;20121;-81
2022/04/20 02:55:13;;;;;;;1.38;1.27;;;12.50;39.70;;;9.72;42.59;101243.13;8263464;28;20042;-81
2022/04/20 02:59:16;;;;;;;1.33;1.17;;;12.20;39.60;;;10.13;42.88;101313.50;8279242;28;20113;-81
2022/04/20 03:03:18;;;;;;;1.98;1.40;;;12.80;40.00;;;10.15;42.84;101311.69;8277403;28;20125;-81
2022/04/20 03:07:20;;;;;;;2.13;1.40;;;12.30;39.90;;;9.98;42.52;101290.69;8276991;28;20141;-81
2022/04/20 03:11:27;;;;;;;1.60;1.20;;;12.30;40.00;;;9.70;43.27;101244.94;8242342;28;20039;-81
2022/04/20 03:15:29;;;;;;;2.03;1.63;;;12.30;40.10;;;9.92;42.90;101301.41;8246112;28;20599;-80
2022/04/20 03:19:33;;;;;;;1.33;1.23;;;12.30;40.10;;;9.92;43.45;101298.78;8257172;28;20129;-81
2022/04/20 03:23:35;;;;;;;1.33;1.25;;;12.10;40.20;;;10.09;43.52;101311.94;8256338;28;20128;-81
2022/04/20 03:27:40;;;;;;;6.22;1.55;;;12.20;40.40;;;10.09;43.15;101309.34;8257191;28;20042;-81
2022/04/20 03:31:42;;;;;;;4.63;1.35;;;12.30;40.50;;;9.59;42.87;101233.28;8254410;28;20125;-81
2022/04/20 03:35:44;;;;;;;2.35;1.67;;;12.30;40.40;;;10.06;43.18;101301.66;8269516;28;20591;-81
2022/04/20 03:39:46;;;;;;;2.35;1.45;;;12.20;40.40;;;10.00;43.02;101307.13;8259894;28;20494;-81
2022/04/20 03:43:49;;;;;;;1.55;1.33;;;12.30;40.60;;;10.13;43.69;101325.72;8244753;28;20126;-81
2022/04/20 03:47:50;;;;;;;2.40;1.42;;;12.30;40.70;;;10.13;43.58;101318.75;8257320;28;20125;-81
2022/04/20 03:51:52;;;;;;;1.77;1.67;;;12.20;40.70;;;10.05;43.27;101314.78;8258806;28;20150;-81
2022/04/20 03:56:01;;;;;;;3.25;1.90;;;12.30;40.70;;;10.18;43.63;101324.59;8274554;28;20137;-81
2022/04/20 04:00:04;;;;;;;1.83;1.58;;;12.30;41.30;;;10.07;43.82;101302.47;8245002;28;20117;-80
2022/04/20 04:04:07;;;;;;;2.70;1.65;;;12.40;41.10;;;10.19;43.94;101328.06;8258273;28;20044;-81
2022/04/20 04:08:10;;;;;;;1.50;1.40;;;12.40;41.10;;;9.94;43.57;101295.22;8263052;28;20104;-81
2022/04/20 04:12:11;;;;;;;1.83;1.45;;;12.30;41.20;;;10.10;43.40;101312.78;8255372;28;20424;-81
2022/04/20 04:16:21;;;;;;;2.25;1.65;;;12.40;41.30;;;9.92;43.80;101273.53;8254551;28;20046;-81
2022/04/20 04:20:23;;;;;;;2.97;1.83;;;12.40;41.40;;;10.15;43.96;101310.81;8274098;28;20130;-80
2022/04/20 04:24:35;;;;;;;4.22;1.98;;;12.40;41.50;;;10.00;44.56;101280.19;8271479;28;20121;-80
2022/04/20 04:28:40;;;;;;;1.83;1.65;;;12.40;41.50;;;10.24;44.01;101317.41;8242427;28;20145;-81
2022/04/20 04:32:42;;;;;;;2.22;1.95;;;12.40;41.60;;;10.27;44.01;101320.78;8241192;28;20137;-81
2022/04/20 04:36:45;;;;;;;2.15;1.70;;;12.60;41.90;;;10.04;44.11;101276.53;8256872;28;20054;-81
2022/04/20 04:40:49;;;;;;;2.15;1.55;;;12.50;41.80;;;10.30;44.56;101319.78;8274788;28;20121;-81
2022/04/20 04:44:51;;;;;;;1.90;1.58;;;12.40;41.80;;;10.28;44.40;101321.59;8259645;28;20125;-81
2022/04/20 04:48:54;;;;;;;1.45;1.35;;;12.50;41.80;;;10.23;44.31;101326.16;8250070;28;20125;-88
2022/04/20 04:52:56;;;;;;;2.45;1.67;;;12.50;41.80;;;10.03;45.00;101296.56;8241020;28;20127;-80
2022/04/20 04:56:59;;;;;;;3.47;2.15;;;12.30;41.90;;;10.12;44.81;101308.34;8272317;28;20129;-80
2022/04/20 05:01:02;;;;;;;2.22;1.60;;;12.50;42.10;;;9.92;44.74;101264.88;8251192;28;20121;-81
2022/04/20 05:05:05;;;;;;;3.88;1.98;;;12.50;42.10;;;10.06;44.94;101285.97;8270005;28;20121;-81
2022/04/20 05:09:07;;;;;;;2.92;2.10;;;12.50;42.30;;;10.29;44.32;101336.34;8237682;28;20156;-80
2022/04/20 05:13:12;;;;;;;2.13;1.90;;;12.40;42.20;;;10.28;44.82;101332.06;8247475;28;20043;-84
2022/04/20 05:17:14;;;;;;;2.83;1.67;;;12.40;42.20;;;10.25;45.00;101325.16;8270532;28;20133;-81
2022/04/20 05:21:16;;;;;;;2.28;1.98;;;12.20;42.30;;;9.86;45.25;101255.56;8271092;28;20121;-81
2022/04/20 05:25:18;;;;;;;1.83;1.73;;;12.20;42.40;;;9.85;45.02;101260.84;8260071;28;20042;-81
2022/04/20 05:29:20;;;;;;;2.83;2.25;;;12.50;42.60;;;10.07;45.45;101312.91;8272638;28;20133;-81
2022/04/20 05:33:34;;;;;;;3.53;2.10;;;12.30;42.40;;;10.25;45.25;101326.94;8258445;28;20129;-81
2022/04/20 05:41:58;;;;;;;2.13;1.92;;;12.50;42.60;;;10.32;45.52;101333.63;8238661;28;20042;-80
2022/04/20 05:46:03;;;;;;;4.90;1.85;;;12.50;42.70;;;10.34;44.80;101331.78;8251155;28;20054;-79
2022/04/20 05:50:12;;;;;;;3.75;2.08;;;12.50;42.70;;;10.13;44.98;101290.03;8249443;28;20042;-79
2022/04/20 05:54:14;;;;;;;1.83;1.67;;;12.50;42.90;;;10.22;45.09;101291.38;8234665;28;20057;-81
2022/04/20 05:58:17;;;;;;;2.85;2.17;;;12.90;43.10;;;10.44;45.24;101334.84;8249059;28;20423;-79
2022/04/20 06:02:19;;;;;;;2.85;1.88;;;12.60;43.10;;;10.57;45.43;101338.59;8268381;28;20122;-78
2022/04/20 06:06:21;;;;;;;2.00;1.83;;;12.50;42.90;;;10.70;45.42;101328.44;8244765;28;20060;-79
2022/04/20 06:10:25;;;;;;;3.88;2.20;;;12.70;43.20;;;10.87;45.26;101331.09;8244454;28;20049;-78
2022/04/20 06:14:47;;;;;;;4.40;2.20;;;12.90;43.30;;;10.85;44.83;101317.25;8249768;28;20034;-78
2022/04/20 06:19:11;;;;;;;3.13;1.95;;;13.00;43.00;;;10.90;45.93;101330.09;8266437;28;20404;-79
2022/04/20 06:23:28;;;;;;;3.17;2.30;;;13.10;42.70;;;10.51;45.43;101268.38;8270681;28;20706;-78
2022/04/20 06:27:49;;;;;;;2.50;1.98;;;13.10;42.90;;;10.92;45.98;101338.72;8250145;28;20407;-79
2022/04/20 06:32:13;;;;;;;1.95;1.75;;;13.10;42.90;;;10.89;45.72;101329.28;8265899;28;20046;-78
2022/04/20 06:36:43;;;;;;;3.60;2.17;;;13.10;42.60;;;10.94;45.70;101326.44;8266693;28;20031;-77
2022/04/20 06:41:09;;;;;;;2.13;2.00;;;13.10;42.60;;;10.89;45.65;101323.19;8273095;28;20141;-77
2022/04/20 06:45:29;;;;;;;2.25;1.80;;;12.90;42.50;;;10.99;45.79;101334.88;8251943;28;20034;-78
2022/04/20 06:49:49;;;;;;;1.60;1.50;;;13.20;42.70;;;11.10;45.76;101331.78;8256619;28;20539;-79
2022/04/20 06:58:35;;;;;;;1.92;1.80;;;13.20;43.00;;;11.09;45.95;101315.25;8271483;28;20298;-78
2022/04/20 07:02:43;;;;;;;2.10;1.85;;;13.30;42.60;;;11.22;45.53;101324.19;8269544;28;20048;-79
2022/04/20 07:06:54;;;;;;;2.85;1.90;;;13.40;42.70;;;11.28;45.20;101349.19;8256924;28;20141;-79
2022/04/20 07:11:02;;;;;;;4.03;2.28;;;13.40;42.40;;;11.24;45.81;101345.91;8248750;28;20784;-79
2022/04/20 07:15:04;;;;;;;1.90;1.70;;;13.40;42.30;;;11.27;45.38;101342.28;8249060;28;20030;-79
2022/04/20 07:19:06;;;;;;;1.98;1.80;;;13.40;42.30;;;11.27;45.65;101345.75;8254604;28;20053;-80
2022/04/20 07:23:27;;;;;;;3.03;2.08;;;13.30;42.20;;;11.24;45.43;101352.91;8258523;28;20115;-79
2022/04/20 07:27:35;;;;;;;1.80;1.70;;;13.30;42.30;;;11.19;45.30;101347.03;8239496;28;20050;-79
2022/04/20 07:31:48;;;;;;;2.17;1.88;;;13.40;42.40;;;11.22;45.69;101349.50;8256318;28;20048;-79
2022/04/20 07:36:21;;;;;;;1.60;1.50;;;13.40;42.30;;;11.15;46.18;101335.00;8265198;28;20057;-79
2022/04/20 07:40:32;;;;;;;2.33;2.03;;;13.40;42.30;;;11.23;45.44;101338.97;8272089;28;20125;-79
2022/04/20 07:44:42;;;;;;;2.33;2.13;;;13.40;42.40;;;11.24;46.22;101350.28;8248646;28;20044;-79
2022/04/20 07:48:49;;;;;;;5.20;2.15;;;13.50;42.60;;;11.22;46.25;101345.13;8256213;28;20040;-79
2022/04/20 07:53:14;;;;;;;1.70;1.60;;;13.50;42.50;;;11.35;45.70;101342.75;8235808;28;20483;-79
2022/04/20 07:57:43;;;;;;;3.63;2.17;;;13.50;42.70;;;11.38;45.64;101326.91;8269523;28;20046;-79
2022/04/20 08:01:57;;;;;;;2.00;1.80;;;13.50;43.00;;;11.61;45.46;101341.50;8253731;28;20034;-79
2022/04/20 08:06:25;;;;;;;2.38;1.70;;;13.30;42.40;;;11.81;45.69;101343.09;8258628;28;20633;-79
2022/04/20 08:10:26;;;;;;;2.08;1.75;;;13.80;42.70;;;11.59;45.73;101277.94;8254798;28;20125;-78
2022/04/20 08:14:28;;;;;;;1.90;1.75;;;13.80;42.50;;;12.10;45.27;101336.41;8250349;28;20046;-79
2022/04/20 08:18:48;;;;;;;2.80;1.58;;;14.00;42.30;;;12.24;45.71;101332.22;8254091;28;20046;-79
2022/04/20 08:23:14;;;;;;;1.92;1.73;;;14.10;42.10;;;12.34;45.60;101331.66;8250353;28;20047;-80
2022/04/20 08:27:15;;;;;;;1.63;1.35;;;14.30;41.90;;;12.47;45.35;101331.00;8250138;28;20057;-79
2022/04/20 08:31:17;;;;;;;1.50;1.35;;;14.20;41.40;;;12.53;45.54;101312.31;8270009;28;20034;-79
2022/04/20 08:35:19;;;;;;;1.85;1.52;;;14.50;41.10;;;12.57;45.07;101321.72;8264072;28;20046;-79
2022/04/20 08:39:21;;;;;;;1.10;1.02;;;14.70;40.90;;;12.74;44.77;101331.28;8253718;28;20053;-79
2022/04/20 08:43:23;;;;;;;1.83;1.55;;;14.70;40.70;;;12.74;44.51;101326.03;8257377;28;20105;-80
2022/04/20 08:47:28;;;;;;;1.20;1.10;;;14.80;40.30;;;12.69;44.48;101313.22;8242000;28;20558;-79
2022/04/20 08:52:37;;;;;;;2.47;1.23;;;14.90;40.20;;;12.85;44.61;101328.91;8259936;28;20118;-79
2022/04/20 08:57:15;;;;;;;1.58;1.48;;;14.90;40.20;;;12.82;44.55;101324.69;8245475;28;20125;-79
2022/04/20 09:00:22;;;;;;;2.10;1.40;;;14.80;40.10;;;12.76;44.68;101326.81;8244621;28;20150;-79
2022/04/20 09:04:24;;;;;;;1.77;1.23;;;15.00;40.30;;;12.51;44.43;101280.16;8262647;28;20041;-80
2022/04/20 09:08:26;;;;;;;1.83;1.27;;;14.80;40.50;;;12.71;44.84;101321.81;8274427;28;20034;-81
2022/04/20 09:12:28;;;;;;;2.08;1.38;;;15.00;40.80;;;12.58;44.96;101311.19;8263528;28;20038;-82
2022/04/20 09:16:31;;;;;;;2.63;1.35;;;14.90;41.20;;;12.72;45.04;101335.75;8264660;28;20476;-82
2022/04/20 09:20:34;;;;;;;1.50;1.40;;;14.90;41.40;;;12.69;45.38;101339.41;8249212;28;20481;-79
2022/04/20 09:24:36;;;;;;;1.60;1.50;;;14.90;41.80;;;12.71;45.09;101345.41;8264992;28;20228;-79
2022/04/20 09:28:42;;;;;;;2.25;1.40;;;15.00;41.80;;;12.52;45.48;101310.66;8280847;28;20145;-79
2022/04/20 09:32:46;;;;;;;4.03;1.83;;;14.80;42.20;;;12.70;45.62;101337.63;8265316;28;20038;-80
2022/04/20 09:36:49;;;;;;;3.88;1.40;;;14.80;42.40;;;12.71;45.52;101341.94;8263283;28;20053;-80
2022/04/20 09:40:52;;;;;;;1.60;1.38;;;14.80;42.60;;;12.59;45.62;101317.25;8264649;28;20133;-80
2022/04/20 09:45:00;;;;;;;1.27;1.13;;;14.80;42.90;;;12.75;45.72;101338.25;8245593;28;20128;-79
2022/04/20 09:49:10;;;;;;;3.15;1.40;;;14.80;42.90;;;12.52;46.09;101298.38;8279158;28;20152;-81
2022/04/20 09:53:14;;;;;;;1.98;1.58;;;14.80;43.20;;;12.71;45.89;101344.56;8265390;28;20138;-78
2022/04/20 09:57:15;;;;;;;3.60;1.40;;;14.80;42.70;;;12.67;45.83;101340.44;8260500;28;20499;-79
2022/04/20 10:01:35;;;;;;;1.25;1.15;;;14.80;42.90;;;12.54;46.10;101332.38;8265573;28;20038;-79
2022/04/20 10:05:39;;;;;;;1.45;1.35;;;14.80;43.00;;;12.55;46.07;101326.19;8252920;28;20130;-80
2022/04/20 10:09:43;;;;;;;2.27;1.13;;;14.70;42.90;;;12.38;46.13;101293.06;8263691;28;20117;-80
2022/04/20 10:13:46;;;;;;;1.85;1.50;;;14.70;43.10;;;12.46;46.24;101303.97;8263809;28;20452;-79
2022/04/20 10:17:50;;;;;;;2.47;1.30;;;14.60;43.20;;;12.60;46.30;101317.16;8279566;28;20044;-80
2022/04/20 10:21:54;;;;;;;2.53;1.40;;;14.90;43.40;;;12.46;46.26;101279.56;8262791;28;20528;-80
2022/04/20 10:25:58;;;;;;;1.52;1.40;;;14.70;44.00;;;12.40;46.52;101271.09;8264124;28;20034;-81
2022/04/20 10:30:07;;;;;;;1.27;1.13;;;14.70;43.30;;;12.57;46.56;101292.91;8246406;28;20129;-80
2022/04/20 10:34:18;;;;;;;1.52;1.10;;;14.80;43.30;;;12.79;46.54;101308.28;8264142;28;20115;-80
2022/04/20 10:38:47;;;;;;;1.65;1.23;;;14.80;43.60;;;12.81;46.54;101295.97;8250581;28;20133;-79
2022/04/20 10:43:21;;;;;;;1.05;1.02;;;14.90;43.60;;;12.83;46.70;101284.47;8251606;28;20129;-78
2022/04/20 10:47:36;;;;;;;1.27;1.23;;;14.90;44.30;;;12.97;46.74;101273.19;8261785;28;20460;-79
2022/04/20 10:51:46;;;;;;;1.45;1.17;;;15.00;44.10;;;12.96;46.63;101257.53;8260442;28;20140;-78
2022/04/20 10:55:47;;;;;;;2.70;1.77;;;15.00;44.10;;;12.96;46.87;101244.44;8263074;28;20125;-80
2022/04/20 11:00:20;;;;;;;1.55;1.45;;;15.10;44.10;;;12.93;47.00;101242.84;8263716;28;20045;-79
2022/04/20 11:04:42;;;;;;;1.60;1.50;;;15.10;44.70;;;12.94;47.32;101241.09;8256265;28;20117;-79
2022/04/20 11:08:43;;;;;;;1.63;1.50;;;15.00;44.80;;;12.94;47.11;101234.06;8258941;28;20672;-79
2022/04/20 11:22:19;;;;;;;1.70;1.30;;;15.10;45.00;;;12.96;47.54;101247.06;8258173;28;20122;-79
2022/04/20 11:26:24;;;;;;;1.50;1.40;;;15.00;45.50;;;12.87;47.56;101214.34;8260450;28;20054;-79
2022/04/20 11:30:26;;;;;;;1.45;1.20;;;15.00;45.20;;;12.88;47.45;101197.72;8256695;28;20137;-80
2022/04/20 11:34:33;;;;;;;1.25;0.90;;;14.90;45.10;;;12.54;47.86;101147.22;8261517;28;20113;-79
2022/04/20 11:38:42;;;;;;;0.88;0.88;;;14.90;45.20;;;12.76;47.90;101209.72;8259421;28;20256;-86
2022/04/20 11:43:07;;;;;;;1.10;1.00;;;15.00;45.30;;;12.74;48.26;101203.72;8262634;28;20119;-80
2022/04/20 11:47:10;;;;;;;0.98;0.98;;;15.00;46.00;;;12.92;47.89;101219.34;8276173;28;20483;-83
2022/04/20 11:51:13;;;;;;;1.58;1.20;;;15.00;45.90;;;12.88;47.86;101196.84;8262191;28;20049;-80
2022/04/20 11:55:14;;;;;;;1.45;1.00;;;14.90;45.70;;;12.84;47.92;101176.06;8261756;28;20678;-79
2022/04/20 11:59:18;;;;;;;3.05;1.20;;;15.10;45.80;;;13.00;48.00;101190.91;8261412;28;20045;-81
2022/04/20 12:03:20;;;;;;;1.20;1.10;;;15.20;45.80;;;13.11;47.82;101198.16;8261281;28;20129;-81
2022/04/20 12:07:22;;;;;;;1.00;0.90;;;15.40;45.80;;;12.87;48.14;101145.38;8258847;28;20483;-80
2022/04/20 12:11:24;;;;;;;1.13;1.05;;;15.20;45.70;;;13.08;48.07;101162.47;8259266;28;20038;-84
2022/04/20 12:15:26;;;;;;;1.58;1.40;;;15.30;45.40;;;13.20;47.86;101172.22;8261124;28;20040;-80
2022/04/20 12:19:32;;;;;;;0.90;0.85;;;15.30;45.40;;;13.35;47.95;101180.16;8246653;28;20133;-80
2022/04/20 12:23:35;;;;;;;1.85;1.20;;;15.30;45.60;;;13.45;47.98;101181.31;8242970;28;20125;-80
2022/04/20 12:27:55;;;;;;;1.80;1.35;;;15.40;45.30;;;13.33;48.24;101148.78;8260807;28;20117;-80
2022/04/20 12:31:57;;;;;;;1.25;1.10;;;15.50;45.60;;;13.31;48.00;101141.91;8258109;28;20042;-80
2022/04/20 12:36:06;;;;;;;2.58;1.90;;;15.60;45.10;;;13.19;48.09;101107.59;8259374;28;20042;-80
2022/04/20 12:40:23;;;;;;;1.35;1.25;;;15.60;45.10;;;13.59;48.00;101178.69;8255158;28;20545;-78
2022/04/20 12:44:34;;;;;;;1.48;1.38;;;15.60;45.20;;;13.57;48.15;101159.56;8260319;28;20548;-79
2022/04/20 12:48:43;;;;;;;1.75;1.38;;;15.70;45.20;;;13.75;48.08;101156.78;8255797;28;20109;-80
2022/04/20 12:52:52;;;;;;;1.30;1.20;;;15.70;44.90;;;13.80;47.90;101155.53;8274849;28;20505;-79
2022/04/20 13:05:50;;;;;;;1.73;1.20;;;16.00;44.10;;;13.89;47.35;101112.13;8244104;28;20642;-80
2022/04/20 13:09:51;;;;;;;1.05;1.05;;;16.00;43.90;;;14.06;47.14;101117.13;8258468;28;20142;-79
2022/04/20 13:13:57;;;;;;;1.40;1.20;;;16.00;43.70;;;14.01;47.28;101090.31;8257417;28;20133;-79
2022/04/20 13:17:58;;;;;;;1.38;1.30;;;16.00;43.70;;;14.21;47.07;101111.88;8258381;28;20117;-79
2022/04/20 13:22:00;;;;;;;1.25;1.13;;;16.10;43.60;;;14.26;47.40;101101.91;8256114;28;20107;-79
2022/04/20 13:30:27;;;;;;;1.52;1.35;;;16.30;43.40;;;14.34;47.01;101075.97;8242688;28;20133;-80
2022/04/20 13:34:28;;;;;;;1.80;1.42;;;16.30;43.30;;;14.40;47.00;101075.56;8230641;28;20050;-79
2022/04/20 13:38:31;;;;;;;2.20;1.13;;;16.50;43.40;;;14.46;46.96;101069.91;8240356;28;20129;-79
2022/04/20 13:42:33;;;;;;;1.55;1.40;;;16.50;43.20;;;14.56;47.01;101060.50;8241934;28;20042;-79
2022/04/20 13:46:35;;;;;;;1.63;1.50;;;16.60;43.30;;;14.67;46.74;101061.56;8240200;28;20026;-79
2022/04/20 13:50:36;;;;;;;1.92;1.35;;;16.50;43.20;;;14.63;46.81;101029.38;8240354;28;20065;-80
2022/04/20 13:54:37;;;;;;;2.55;1.42;;;16.70;43.20;;;14.82;46.95;101035.09;8243942;28;20042;-79
2022/04/20 13:58:39;;;;;;;3.45;1.40;;;16.80;43.10;;;15.01;46.88;101029.41;8245923;28;20026;-79
2022/04/20 14:02:42;;;;;;;1.42;1.33;;;17.00;43.20;;;15.16;46.58;101024.03;8247340;28;20053;-79
2022/04/20 14:06:43;;;;;;;3.22;1.42;;;16.90;42.70;;;15.38;46.41;101045.25;8255590;28;20039;-79
2022/04/20 14:10:45;;;;;;;2.10;1.60;;;17.20;42.60;;;15.48;46.37;101038.41;8257369;28;20922;-82
2022/04/20 14:14:47;;;;;;;1.33;1.23;;;17.20;42.50;;;15.39;46.14;101007.47;8240438;28;20056;-79
2022/04/20 14:18:48;;;;;;;3.35;1.73;;;17.40;42.50;;;15.65;46.22;101020.56;8234005;28;20054;-79
2022/04/20 14:22:50;;;;;;;1.63;1.10;;;17.50;42.20;;;15.75;46.33;101015.50;8255424;28;20037;-79
2022/04/20 14:35:31;;;;;;;1.10;1.00;;;17.90;41.90;;;16.22;45.74;100998.00;8271701;28;20048;-79
2022/04/20 14:39:34;;;;;;;2.45;1.10;;;17.90;41.60;;;16.24;45.44;100978.47;8257601;28;20266;-79
2022/04/20 14:43:35;;;;;;;1.10;0.90;;;18.10;41.10;;;16.43;45.06;100996.38;8244591;28;20531;-79
2022/04/20 14:47:37;;;;;;;1.15;1.05;;;18.30;41.00;;;16.47;45.05;100989.09;8254523;28;20048;-80
2022/04/20 14:51:39;;;;;;;1.10;1.00;;;18.40;40.80;;;16.45;44.98;100996.28;8256225;28;20056;-80
2022/04/20 14:55:40;;;;;;;2.55;0.93;;;18.20;40.40;;;16.41;44.92;100984.28;8250599;28;20525;-80
2022/04/20 14:59:42;;;;;;;2.75;1.08;;;18.40;40.20;;;16.09;44.76;100933.06;8249301;28;20038;-80
2022/04/20 15:03:43;;;;;;;1.60;1.08;;;18.20;40.20;;;16.41;44.64;100982.47;8255180;28;20049;-79
2022/04/20 15:07:45;;;;;;;1.40;0.98;;;18.40;40.20;;;15.96;44.61;100911.22;8255176;28;21249;-80
2022/04/20 15:11:47;;;;;;;1.65;1.17;;;18.40;40.20;;;16.36;44.46;100977.56;8257184;28;20050;-79
2022/04/20 15:15:48;;;;;;;1.02;0.90;;;18.20;40.00;;;16.42;44.57;100988.59;8235994;28;20050;-80
2022/04/20 15:19:52;;;;;;;1.52;1.00;;;18.40;39.70;;;16.39;44.38;100997.59;8253472;28;20049;-80
2022/04/20 15:23:54;;;;;;;1.00;1.00;;;18.40;39.50;;;16.30;44.31;100988.56;8252068;28;20610;-80
2022/04/20 15:27:55;;;;;;;2.67;1.40;;;18.40;39.10;;;16.28;43.92;100995.75;8254833;28;20044;-80
2022/04/20 15:31:57;;;;;;;1.38;1.27;;;18.40;38.90;;;16.23;43.83;100994.41;8255687;28;20042;-80
2022/04/20 15:35:58;;;;;;;1.98;1.15;;;18.30;39.00;;;16.13;43.95;100979.28;8255547;28;20054;-80
2022/04/20 15:39:59;;;;;;;1.70;1.05;;;18.30;38.90;;;16.13;43.89;100989.81;8250898;28;20483;-80
2022/04/20 15:44:03;;;;;;;1.38;1.05;;;18.20;38.90;;;16.10;43.88;100995.31;8250578;28;20046;-79
2022/04/20 15:48:08;;;;;;;1.88;1.48;;;18.20;38.90;;;16.02;43.86;100983.69;8250976;28;20048;-79
2022/04/20 15:52:09;;;;;;;2.70;2.25;;;18.10;38.70;;;16.03;43.69;100969.53;8230882;28;20053;-79
2022/04/20 16:00:32;;;;;;;3.13;1.73;;;18.00;38.80;;;16.01;43.80;100974.91;8228750;28;20053;-80
2022/04/20 16:04:34;;;;;;;1.95;1.73;;;18.10;38.80;;;15.92;43.06;100957.16;8226126;28;20046;-79
2022/04/20 16:08:36;;;;;;;2.03;1.73;;;18.20;38.80;;;16.05;43.52;100980.81;8241070;28;20731;-79
2022/04/20 16:12:38;;;;;;;1.20;1.10;;;18.30;38.70;;;16.05;43.55;100979.03;8223796;28;20042;-79
2022/04/20 16:16:42;;;;;;;1.50;1.17;;;18.10;38.70;;;15.46;43.15;100885.00;8226618;28;20038;-79
2022/04/20 16:20:45;;;;;;;1.00;1.00;;;18.10;38.40;;;15.87;43.20;100956.66;8266681;28;20042;-80
2022/04/20 16:24:46;;;;;;;1.38;1.27;;;17.90;38.10;;;15.51;43.19;100904.91;8237527;28;20052;-80
2022/04/20 16:28:48;;;;;;;2.85;1.38;;;17.90;38.20;;;15.86;42.84;100968.16;8262199;28;20068;-79
2022/04/20 16:32:50;;;;;;;2.72;1.10;;;18.00;38.10;;;15.79;43.18;100970.41;8253399;28;20053;-79
2022/04/20 16:36:53;;;;;;;2.05;1.27;;;17.90;38.10;;;15.78;42.59;100986.31;8247366;28;20054;-79
2022/04/20 16:40:56;;;;;;;1.30;1.00;;;17.70;38.00;;;15.72;42.72;100981.50;8249823;28;20418;-79
2022/04/20 16:44:57;;;;;;;0.75;0.75;;;17.60;37.70;;;15.39;43.01;100943.47;8252514;28;20048;-79
2022/04/20 16:48:59;;;;;;;1.00;0.90;;;17.70;38.40;;;15.63;42.80;100985.59;8250063;28;20044;-79
2022/04/20 16:53:00;;;;;;;1.95;1.13;;;17.70;38.00;;;15.43;42.94;100958.09;8246414;28;20048;-79
2022/04/20 16:57:02;;;;;;;1.10;0.88;;;17.70;37.90;;;15.37;42.58;100972.53;8252309;28;20039;-79
2022/04/20 17:01:03;;;;;;;2.05;0.80;;;17.60;37.90;;;15.07;42.87;100922.94;8234576;28;20129;-79
2022/04/20 17:05:06;;;;;;;1.95;1.00;;;17.60;38.00;;;15.47;42.83;100999.88;8251254;28;20040;-79
2022/04/20 17:09:09;;;;;;;1.23;0.93;;;17.60;38.00;;;15.36;42.39;100989.25;8247410;28;20044;-79
2022/04/20 17:13:10;;;;;;;0.90;0.90;;;17.50;37.90;;;15.40;42.52;101022.31;8252331;28;20062;-79
2022/04/20 17:17:11;;;;;;;1.35;1.25;;;17.30;37.80;;;15.22;42.37;100994.66;8250948;28;20061;-79
2022/04/20 17:29:53;;;;;;;2.92;1.50;;;17.20;37.70;;;15.14;42.49;101010.13;8256252;28;20046;-79
2022/04/20 17:33:55;;;;;;;1.10;0.90;;;17.20;38.00;;;14.94;42.38;100972.09;8255447;28;20056;-79
2022/04/20 17:37:56;;;;;;;1.00;0.90;;;17.20;37.60;;;15.09;42.38;101001.72;8256157;28;20030;-79
2022/04/20 17:41:59;;;;;;;0.70;0.70;;;17.20;37.50;;;14.63;42.07;100939.19;8251970;28;20030;-79
2022/04/20 17:46:01;;;;;;;1.10;0.88;;;17.00;37.30;;;14.56;42.38;100942.22;8251403;28;20032;-79
2022/04/20 17:50:03;;;;;;;0.60;0.60;;;17.10;37.30;;;14.96;42.24;101023.63;8258987;28;20042;-82
2022/04/20 17:54:05;;;;;;;1.13;0.80;;;17.10;37.20;;;14.54;42.37;100967.78;8241893;28;20060;-81
2022/04/20 17:58:06;;;;;;;2.05;1.77;;;17.00;37.20;;;14.53;41.94;100971.34;8257461;28;20050;-79
2022/04/20 18:02:09;;;;;;;2.55;1.83;;;16.80;37.40;;;14.62;42.23;100995.31;8256813;28;20034;-79